sensor_id;sensor_type;location;lat;lon;timestamp;pressure;altitude;pressure_sealevel;temperature;humidity
58243;BME280;50118;53.232;8.252;2023-05-24T00:01:03;102085.91;;;6.37;100.00
58243;BME280;50118;53.232;8.252;2023-05-24T00:03:31;102081.78;;;6.31;100.00
58243;BME280;50118;53.232;8.252;2023-05-24T00:05:59;102077.69;;;6.26;100.00
58243;BME280;50118;53.232;8.252;2023-05-24T00:08:25;102075.13;;;6.24;100.00
58243;BME280;50118;53.232;8.252;2023-05-24T00:10:50;102069.13;;;6.21;100.00
58243;BME280;50118;53.232;8.252;2023-05-24T00:13:16;102070.06;;;6.20;100.00
58243;BME280;50118;53.232;8.252;2023-05-24T00:15:41;102060.09;;;6.25;100.00
58243;BME280;50118;53.232;8.252;2023-05-24T00:18:07;102076.47;;;6.31;100.00
58243;BME280;50118;53.232;8.252;2023-05-24T00:20:32;102059.59;;;6.34;100.00
58243;BME280;50118;53.232;8.252;2023-05-24T00:22:58;102063.94;;;6.35;100.00
58243;BME280;50118;53.232;8.252;2023-05-24T00:25:23;102054.06;;;6.39;100.00
58243;BME280;50118;53.232;8.252;2023-05-24T00:27:48;102063.50;;;6.43;100.00
58243;BME280;50118;53.232;8.252;2023-05-24T00:30:14;102056.34;;;6.45;100.00
58243;BME280;50118;53.232;8.252;2023-05-24T00:32:39;102062.31;;;6.48;100.00
58243;BME280;50118;53.232;8.252;2023-05-24T00:35:05;102062.50;;;6.45;100.00
58243;BME280;50118;53.232;8.252;2023-05-24T00:37:30;102058.22;;;6.43;100.00
58243;BME280;50118;53.232;8.252;2023-05-24T00:39:56;102054.44;;;6.47;100.00
58243;BME280;50118;53.232;8.252;2023-05-24T00:42:21;102051.72;;;6.48;100.00
58243;BME280;50118;53.232;8.252;2023-05-24T00:44:47;102052.75;;;6.46;100.00
58243;BME280;50118;53.232;8.252;2023-05-24T00:47:14;102055.31;;;6.47;100.00
58243;BME280;50118;53.232;8.252;2023-05-24T00:49:40;102052.41;;;6.52;100.00
58243;BME280;50118;53.232;8.252;2023-05-24T00:52:05;102055.41;;;6.46;100.00
58243;BME280;50118;53.232;8.252;2023-05-24T00:54:33;102059.56;;;6.50;100.00
58243;BME280;50118;53.232;8.252;2023-05-24T00:56:58;102046.94;;;6.55;100.00
58243;BME280;50118;53.232;8.252;2023-05-24T00:59:25;102052.50;;;6.50;100.00
58243;BME280;50118;53.232;8.252;2023-05-24T01:01:51;102057.69;;;6.52;100.00
58243;BME280;50118;53.232;8.252;2023-05-24T01:04:16;102047.47;;;6.46;100.00
58243;BME280;50118;53.232;8.252;2023-05-24T01:15:30;102045.59;;;6.48;100.00
58243;BME280;50118;53.232;8.252;2023-05-24T01:18:11;102052.06;;;6.58;100.00
58243;BME280;50118;53.232;8.252;2023-05-24T01:20:38;102044.38;;;6.53;100.00
58243;BME280;50118;53.232;8.252;2023-05-24T01:23:27;102054.88;;;6.55;100.00
58243;BME280;50118;53.232;8.252;2023-05-24T01:26:18;102050.69;;;6.67;100.00
58243;BME280;50118;53.232;8.252;2023-05-24T01:28:47;102047.19;;;6.66;100.00
58243;BME280;50118;53.232;8.252;2023-05-24T01:31:15;102045.38;;;6.67;100.00
58243;BME280;50118;53.232;8.252;2023-05-24T01:33:42;102045.13;;;6.71;100.00
58243;BME280;50118;53.232;8.252;2023-05-24T01:36:07;102036.50;;;6.68;100.00
58243;BME280;50118;53.232;8.252;2023-05-24T01:38:33;102044.19;;;6.72;100.00
58243;BME280;50118;53.232;8.252;2023-05-24T01:41:05;102042.13;;;6.78;100.00
58243;BME280;50118;53.232;8.252;2023-05-24T01:43:39;102040.50;;;6.75;100.00
58243;BME280;50118;53.232;8.252;2023-05-24T01:46:24;102042.41;;;6.73;100.00
58243;BME280;50118;53.232;8.252;2023-05-24T01:49:01;102038.69;;;6.76;100.00
58243;BME280;50118;53.232;8.252;2023-05-24T01:51:33;102043.56;;;6.67;100.00
58243;BME280;50118;53.232;8.252;2023-05-24T01:54:03;102039.56;;;6.76;100.00
58243;BME280;50118;53.232;8.252;2023-05-24T01:56:30;102046.31;;;6.82;100.00
58243;BME280;50118;53.232;8.252;2023-05-24T01:58:58;102041.00;;;6.82;100.00
58243;BME280;50118;53.232;8.252;2023-05-24T02:01:24;102051.34;;;6.86;100.00
58243;BME280;50118;53.232;8.252;2023-05-24T02:03:51;102048.94;;;6.82;100.00
58243;BME280;50118;53.232;8.252;2023-05-24T02:06:16;102043.31;;;6.88;100.00
58243;BME280;50118;53.232;8.252;2023-05-24T02:08:41;102039.88;;;6.86;100.00
58243;BME280;50118;53.232;8.252;2023-05-24T02:11:07;102045.50;;;6.96;100.00
58243;BME280;50118;53.232;8.252;2023-05-24T02:13:32;102034.06;;;6.95;100.00
58243;BME280;50118;53.232;8.252;2023-05-24T02:15:58;102035.06;;;6.92;100.00
58243;BME280;50118;53.232;8.252;2023-05-24T02:18:23;102032.16;;;6.97;100.00
58243;BME280;50118;53.232;8.252;2023-05-24T02:20:48;102036.28;;;6.87;100.00
58243;BME280;50118;53.232;8.252;2023-05-24T02:23:14;102038.19;;;6.85;100.00
58243;BME280;50118;53.232;8.252;2023-05-24T02:25:39;102033.72;;;6.85;100.00
58243;BME280;50118;53.232;8.252;2023-05-24T02:28:05;102038.31;;;6.98;100.00
58243;BME280;50118;53.232;8.252;2023-05-24T02:30:30;102038.59;;;6.93;100.00
58243;BME280;50118;53.232;8.252;2023-05-24T02:32:55;102031.75;;;6.89;100.00
58243;BME280;50118;53.232;8.252;2023-05-24T02:35:21;102033.69;;;7.01;100.00
58243;BME280;50118;53.232;8.252;2023-05-24T02:37:46;102026.94;;;6.96;100.00
58243;BME280;50118;53.232;8.252;2023-05-24T02:40:12;102026.09;;;6.95;100.00
58243;BME280;50118;53.232;8.252;2023-05-24T02:42:37;102027.41;;;6.88;100.00
58243;BME280;50118;53.232;8.252;2023-05-24T02:45:03;102018.00;;;6.82;100.00
58243;BME280;50118;53.232;8.252;2023-05-24T02:47:29;102021.91;;;6.91;100.00
58243;BME280;50118;53.232;8.252;2023-05-24T02:49:55;102017.84;;;6.85;100.00
58243;BME280;50118;53.232;8.252;2023-05-24T02:52:20;102018.34;;;6.92;100.00
58243;BME280;50118;53.232;8.252;2023-05-24T02:54:48;102027.41;;;6.88;100.00
58243;BME280;50118;53.232;8.252;2023-05-24T02:57:13;102009.81;;;6.87;100.00
58243;BME280;50118;53.232;8.252;2023-05-24T02:59:39;102014.63;;;6.95;100.00
58243;BME280;50118;53.232;8.252;2023-05-24T03:02:04;102017.84;;;6.85;100.00
58243;BME280;50118;53.232;8.252;2023-05-24T03:04:29;102025.34;;;6.93;100.00
58243;BME280;50118;53.232;8.252;2023-05-24T03:06:55;102017.66;;;6.88;100.00
58243;BME280;50118;53.232;8.252;2023-05-24T03:09:20;102014.53;;;6.96;100.00
58243;BME280;50118;53.232;8.252;2023-05-24T03:11:46;102011.47;;;7.04;100.00
58243;BME280;50118;53.232;8.252;2023-05-24T03:14:11;102004.75;;;6.98;100.00
58243;BME280;50118;53.232;8.252;2023-05-24T03:16:36;102017.59;;;7.04;100.00
58243;BME280;50118;53.232;8.252;2023-05-24T03:19:02;102012.22;;;7.06;100.00
58243;BME280;50118;53.232;8.252;2023-05-24T03:21:28;102016.94;;;7.01;100.00
58243;BME280;50118;53.232;8.252;2023-05-24T03:23:54;102016.44;;;6.94;100.00
58243;BME280;50118;53.232;8.252;2023-05-24T03:26:19;102017.88;;;7.00;100.00
58243;BME280;50118;53.232;8.252;2023-05-24T03:28:45;102001.72;;;7.04;100.00
58243;BME280;50118;53.232;8.252;2023-05-24T03:31:11;102000.03;;;7.03;100.00
58243;BME280;50118;53.232;8.252;2023-05-24T03:33:37;102010.63;;;7.03;100.00
58243;BME280;50118;53.232;8.252;2023-05-24T03:36:03;102008.16;;;7.15;100.00
58243;BME280;50118;53.232;8.252;2023-05-24T03:38:29;102005.34;;;7.18;100.00
58243;BME280;50118;53.232;8.252;2023-05-24T03:40:55;102012.53;;;7.30;100.00
58243;BME280;50118;53.232;8.252;2023-05-24T03:43:20;102006.66;;;7.25;100.00
58243;BME280;50118;53.232;8.252;2023-05-24T03:45:46;101999.28;;;7.30;100.00
58243;BME280;50118;53.232;8.252;2023-05-24T03:48:12;102004.78;;;7.41;100.00
58243;BME280;50118;53.232;8.252;2023-05-24T03:50:37;101996.84;;;7.41;100.00
58243;BME280;50118;53.232;8.252;2023-05-24T03:53:03;102000.50;;;7.39;100.00
58243;BME280;50118;53.232;8.252;2023-05-24T03:55:29;101995.22;;;7.39;100.00
58243;BME280;50118;53.232;8.252;2023-05-24T03:57:54;102009.75;;;7.47;100.00
58243;BME280;50118;53.232;8.252;2023-05-24T04:00:20;102016.91;;;7.45;100.00
58243;BME280;50118;53.232;8.252;2023-05-24T04:02:45;102006.50;;;7.42;100.00
58243;BME280;50118;53.232;8.252;2023-05-24T04:05:12;102001.75;;;7.33;100.00
58243;BME280;50118;53.232;8.252;2023-05-24T04:07:38;102012.19;;;7.36;100.00
58243;BME280;50118;53.232;8.252;2023-05-24T04:10:07;102004.88;;;7.40;100.00
58243;BME280;50118;53.232;8.252;2023-05-24T04:12:33;102015.97;;;7.32;100.00
58243;BME280;50118;53.232;8.252;2023-05-24T04:14:59;102013.91;;;7.37;100.00
58243;BME280;50118;53.232;8.252;2023-05-24T04:17:29;102004.63;;;7.44;100.00
58243;BME280;50118;53.232;8.252;2023-05-24T04:19:59;102013.97;;;7.50;100.00
58243;BME280;50118;53.232;8.252;2023-05-24T04:22:24;102003.66;;;7.60;100.00
58243;BME280;50118;53.232;8.252;2023-05-24T04:24:50;102010.09;;;7.70;100.00
58243;BME280;50118;53.232;8.252;2023-05-24T04:27:15;102022.41;;;7.71;100.00
58243;BME280;50118;53.232;8.252;2023-05-24T04:29:43;102013.09;;;7.93;100.00
58243;BME280;50118;53.232;8.252;2023-05-24T04:32:15;102012.81;;;7.97;100.00
58243;BME280;50118;53.232;8.252;2023-05-24T04:34:40;102018.59;;;8.04;100.00
58243;BME280;50118;53.232;8.252;2023-05-24T04:37:08;102031.56;;;8.09;100.00
58243;BME280;50118;53.232;8.252;2023-05-24T04:39:33;102028.81;;;8.10;100.00
58243;BME280;50118;53.232;8.252;2023-05-24T04:41:59;102020.31;;;8.32;100.00
58243;BME280;50118;53.232;8.252;2023-05-24T04:44:25;102018.75;;;8.15;100.00
58243;BME280;50118;53.232;8.252;2023-05-24T04:46:51;102022.66;;;8.24;100.00
58243;BME280;50118;53.232;8.252;2023-05-24T04:49:17;102027.81;;;8.26;100.00
58243;BME280;50118;53.232;8.252;2023-05-24T04:51:42;102016.56;;;8.22;100.00
58243;BME280;50118;53.232;8.252;2023-05-24T04:54:08;102039.22;;;8.28;100.00
58243;BME280;50118;53.232;8.252;2023-05-24T04:56:34;102043.56;;;8.29;100.00
58243;BME280;50118;53.232;8.252;2023-05-24T04:59:00;102043.56;;;8.29;100.00
58243;BME280;50118;53.232;8.252;2023-05-24T05:01:26;102042.00;;;8.39;100.00
58243;BME280;50118;53.232;8.252;2023-05-24T05:03:52;102044.66;;;8.39;100.00
58243;BME280;50118;53.232;8.252;2023-05-24T05:06:17;102041.28;;;8.37;100.00
58243;BME280;50118;53.232;8.252;2023-05-24T05:08:42;102040.09;;;8.41;100.00
58243;BME280;50118;53.232;8.252;2023-05-24T05:11:08;102047.41;;;8.37;100.00
58243;BME280;50118;53.232;8.252;2023-05-24T05:13:33;102049.63;;;8.45;100.00
58243;BME280;50118;53.232;8.252;2023-05-24T05:16:01;102050.75;;;8.55;100.00
58243;BME280;50118;53.232;8.252;2023-05-24T05:18:26;102043.25;;;8.48;100.00
58243;BME280;50118;53.232;8.252;2023-05-24T05:20:52;102052.44;;;8.56;100.00
58243;BME280;50118;53.232;8.252;2023-05-24T05:23:17;102049.19;;;8.66;100.00
58243;BME280;50118;53.232;8.252;2023-05-24T05:25:42;102059.50;;;8.70;100.00
58243;BME280;50118;53.232;8.252;2023-05-24T05:28:08;102049.09;;;8.80;100.00
58243;BME280;50118;53.232;8.252;2023-05-24T05:30:33;102050.44;;;8.87;100.00
58243;BME280;50118;53.232;8.252;2023-05-24T05:32:59;102051.66;;;8.82;100.00
58243;BME280;50118;53.232;8.252;2023-05-24T05:35:24;102057.94;;;8.81;100.00
58243;BME280;50118;53.232;8.252;2023-05-24T05:37:49;102064.31;;;8.78;100.00
58243;BME280;50118;53.232;8.252;2023-05-24T05:40:15;102056.13;;;8.81;100.00
58243;BME280;50118;53.232;8.252;2023-05-24T05:42:40;102055.50;;;8.77;100.00
58243;BME280;50118;53.232;8.252;2023-05-24T05:45:06;102053.84;;;8.89;100.00
58243;BME280;50118;53.232;8.252;2023-05-24T05:47:32;102048.97;;;8.96;100.00
58243;BME280;50118;53.232;8.252;2023-05-24T05:49:57;102051.72;;;8.94;100.00
58243;BME280;50118;53.232;8.252;2023-05-24T05:52:22;102043.66;;;9.09;100.00
58243;BME280;50118;53.232;8.252;2023-05-24T05:54:48;102051.31;;;9.13;100.00
58243;BME280;50118;53.232;8.252;2023-05-24T05:57:13;102043.25;;;9.15;100.00
58243;BME280;50118;53.232;8.252;2023-05-24T05:59:40;102053.03;;;9.27;100.00
58243;BME280;50118;53.232;8.252;2023-05-24T06:02:05;102052.44;;;9.37;100.00
58243;BME280;50118;53.232;8.252;2023-05-24T06:04:31;102062.63;;;9.43;100.00
58243;BME280;50118;53.232;8.252;2023-05-24T06:06:56;102068.81;;;9.43;100.00
58243;BME280;50118;53.232;8.252;2023-05-24T06:09:22;102072.41;;;9.55;100.00
58243;BME280;50118;53.232;8.252;2023-05-24T06:11:47;102068.38;;;9.49;100.00
58243;BME280;50118;53.232;8.252;2023-05-24T06:14:14;102066.81;;;9.47;100.00
58243;BME280;50118;53.232;8.252;2023-05-24T06:16:43;102077.09;;;9.39;100.00
58243;BME280;50118;53.232;8.252;2023-05-24T06:19:12;102073.59;;;9.38;100.00
58243;BME280;50118;53.232;8.252;2023-05-24T06:21:39;102070.94;;;9.51;100.00
58243;BME280;50118;53.232;8.252;2023-05-24T06:24:11;102079.03;;;9.49;100.00
58243;BME280;50118;53.232;8.252;2023-05-24T06:26:38;102081.16;;;9.57;100.00
58243;BME280;50118;53.232;8.252;2023-05-24T06:29:03;102083.28;;;9.65;100.00
58243;BME280;50118;53.232;8.252;2023-05-24T06:31:29;102073.19;;;9.83;100.00
58243;BME280;50118;53.232;8.252;2023-05-24T06:33:54;102072.81;;;10.00;100.00
58243;BME280;50118;53.232;8.252;2023-05-24T06:36:20;102075.19;;;10.05;100.00
58243;BME280;50118;53.232;8.252;2023-05-24T06:38:45;102083.47;;;10.00;100.00
58243;BME280;50118;53.232;8.252;2023-05-24T06:41:10;102072.81;;;10.00;100.00
58243;BME280;50118;53.232;8.252;2023-05-24T06:43:36;102074.75;;;9.98;100.00
58243;BME280;50118;53.232;8.252;2023-05-24T06:46:01;102074.03;;;9.96;100.00
58243;BME280;50118;53.232;8.252;2023-05-24T06:48:26;102072.03;;;10.24;100.00
58243;BME280;50118;53.232;8.252;2023-05-24T06:50:52;102079.81;;;10.14;100.00
58243;BME280;50118;53.232;8.252;2023-05-24T06:53:17;102077.53;;;10.46;100.00
58243;BME280;50118;53.232;8.252;2023-05-24T06:55:43;102078.97;;;10.88;100.00
58243;BME280;50118;53.232;8.252;2023-05-24T06:58:08;102089.41;;;10.91;100.00
58243;BME280;50118;53.232;8.252;2023-05-24T07:00:39;102089.00;;;10.60;100.00
58243;BME280;50118;53.232;8.252;2023-05-24T07:03:05;102101.47;;;10.59;100.00
58243;BME280;50118;53.232;8.252;2023-05-24T07:05:30;102092.28;;;10.63;100.00
58243;BME280;50118;53.232;8.252;2023-05-24T07:07:56;102102.22;;;10.86;100.00
58243;BME280;50118;53.232;8.252;2023-05-24T07:10:21;102096.19;;;10.46;100.00
58243;BME280;50118;53.232;8.252;2023-05-24T07:12:46;102100.47;;;10.36;100.00
58243;BME280;50118;53.232;8.252;2023-05-24T07:15:12;102097.81;;;10.36;100.00
58243;BME280;50118;53.232;8.252;2023-05-24T07:17:37;102104.50;;;10.29;100.00
58243;BME280;50118;53.232;8.252;2023-05-24T07:20:03;102107.19;;;10.29;100.00
58243;BME280;50118;53.232;8.252;2023-05-24T07:22:34;102105.16;;;10.45;100.00
58243;BME280;50118;53.232;8.252;2023-05-24T07:24:59;102107.53;;;10.37;100.00
58243;BME280;50118;53.232;8.252;2023-05-24T07:27:24;102101.28;;;10.50;100.00
58243;BME280;50118;53.232;8.252;2023-05-24T07:29:50;102109.38;;;10.61;100.00
58243;BME280;50118;53.232;8.252;2023-05-24T07:32:15;102105.50;;;10.65;100.00
58243;BME280;50118;53.232;8.252;2023-05-24T07:34:41;102102.50;;;10.70;100.00
58243;BME280;50118;53.232;8.252;2023-05-24T07:37:07;102108.16;;;10.65;100.00
58243;BME280;50118;53.232;8.252;2023-05-24T07:39:32;102109.03;;;10.90;100.00
58243;BME280;50118;53.232;8.252;2023-05-24T07:41:58;102114.31;;;10.78;100.00
58243;BME280;50118;53.232;8.252;2023-05-24T07:44:23;102110.72;;;10.91;100.00
58243;BME280;50118;53.232;8.252;2023-05-24T07:46:49;102112.47;;;11.03;100.00
58243;BME280;50118;53.232;8.252;2023-05-24T07:49:15;102121.97;;;11.07;100.00
58243;BME280;50118;53.232;8.252;2023-05-24T07:51:40;102112.34;;;11.05;100.00
58243;BME280;50118;53.232;8.252;2023-05-24T07:54:06;102129.69;;;10.99;100.00
58243;BME280;50118;53.232;8.252;2023-05-24T07:56:32;102112.38;;;10.80;100.00
58243;BME280;50118;53.232;8.252;2023-05-24T07:58:57;102124.06;;;10.91;100.00
58243;BME280;50118;53.232;8.252;2023-05-24T08:01:32;102128.16;;;10.46;100.00
58243;BME280;50118;53.232;8.252;2023-05-24T08:03:58;102127.94;;;10.50;100.00
58243;BME280;50118;53.232;8.252;2023-05-24T08:06:24;102120.34;;;10.56;100.00
58243;BME280;50118;53.232;8.252;2023-05-24T08:08:50;102125.97;;;10.64;100.00
58243;BME280;50118;53.232;8.252;2023-05-24T08:11:15;102129.59;;;10.88;100.00
58243;BME280;50118;53.232;8.252;2023-05-24T08:13:41;102131.84;;;10.94;100.00
58243;BME280;50118;53.232;8.252;2023-05-24T08:16:07;102134.44;;;10.82;100.00
58243;BME280;50118;53.232;8.252;2023-05-24T08:18:33;102129.59;;;10.88;100.00
58243;BME280;50118;53.232;8.252;2023-05-24T08:20:58;102131.63;;;10.97;100.00
58243;BME280;50118;53.232;8.252;2023-05-24T08:23:24;102127.09;;;11.21;100.00
58243;BME280;50118;53.232;8.252;2023-05-24T08:25:49;102111.03;;;11.34;100.00
58243;BME280;50118;53.232;8.252;2023-05-24T08:28:15;102125.66;;;11.29;100.00
58243;BME280;50118;53.232;8.252;2023-05-24T08:30:41;102131.53;;;11.45;100.00
58243;BME280;50118;53.232;8.252;2023-05-24T08:33:07;102134.44;;;11.42;100.00
58243;BME280;50118;53.232;8.252;2023-05-24T08:35:36;102140.44;;;11.21;100.00
58243;BME280;50118;53.232;8.252;2023-05-24T08:38:01;102139.94;;;10.92;100.00
58243;BME280;50118;53.232;8.252;2023-05-24T08:40:27;102140.56;;;10.96;100.00
58243;BME280;50118;53.232;8.252;2023-05-24T08:42:54;102151.38;;;10.57;100.00
58243;BME280;50118;53.232;8.252;2023-05-24T08:45:25;102153.91;;;10.59;100.00
58243;BME280;50118;53.232;8.252;2023-05-24T08:47:50;102162.38;;;10.77;100.00
58243;BME280;50118;53.232;8.252;2023-05-24T08:50:16;102163.19;;;10.66;100.00
58243;BME280;50118;53.232;8.252;2023-05-24T08:52:42;102168.56;;;10.77;100.00
58243;BME280;50118;53.232;8.252;2023-05-24T08:55:10;102162.78;;;10.83;100.00
58243;BME280;50118;53.232;8.252;2023-05-24T08:57:36;102163.22;;;10.77;100.00
58243;BME280;50118;53.232;8.252;2023-05-24T09:00:05;102178.16;;;10.80;100.00
58243;BME280;50118;53.232;8.252;2023-05-24T09:02:31;102172.50;;;10.84;100.00
58243;BME280;50118;53.232;8.252;2023-05-24T09:04:58;102178.06;;;10.81;100.00
58243;BME280;50118;53.232;8.252;2023-05-24T09:07:24;102172.09;;;10.78;100.00
58243;BME280;50118;53.232;8.252;2023-05-24T09:09:59;102175.19;;;10.84;100.00
58243;BME280;50118;53.232;8.252;2023-05-24T09:12:26;102184.97;;;10.84;100.00
58243;BME280;50118;53.232;8.252;2023-05-24T09:14:53;102171.72;;;10.95;100.00
58243;BME280;50118;53.232;8.252;2023-05-24T09:17:19;102178.69;;;11.09;100.00
58243;BME280;50118;53.232;8.252;2023-05-24T09:19:45;102169.00;;;11.32;100.00
58243;BME280;50118;53.232;8.252;2023-05-24T09:22:14;102173.78;;;11.63;100.00
58243;BME280;50118;53.232;8.252;2023-05-24T09:24:46;102170.94;;;11.88;100.00
58243;BME280;50118;53.232;8.252;2023-05-24T09:27:15;102164.19;;;11.49;100.00
58243;BME280;50118;53.232;8.252;2023-05-24T09:29:42;102186.97;;;11.88;100.00
58243;BME280;50118;53.232;8.252;2023-05-24T09:32:11;102185.16;;;11.89;100.00
58243;BME280;50118;53.232;8.252;2023-05-24T09:34:41;102178.28;;;11.98;100.00
58243;BME280;50118;53.232;8.252;2023-05-24T09:37:18;102180.50;;;12.04;100.00
58243;BME280;50118;53.232;8.252;2023-05-24T09:39:46;102170.50;;;11.59;100.00
58243;BME280;50118;53.232;8.252;2023-05-24T09:44:43;102189.41;;;11.80;100.00
58243;BME280;50118;53.232;8.252;2023-05-24T09:47:09;102177.56;;;11.95;100.00
58243;BME280;50118;53.232;8.252;2023-05-24T09:49:37;102173.44;;;12.25;100.00
58243;BME280;50118;53.232;8.252;2023-05-24T09:52:05;102179.69;;;11.90;100.00
58243;BME280;50118;53.232;8.252;2023-05-24T09:54:32;102187.31;;;12.19;100.00
58243;BME280;50118;53.232;8.252;2023-05-24T09:57:04;102175.28;;;12.36;100.00
58243;BME280;50118;53.232;8.252;2023-05-24T09:59:34;102185.84;;;12.60;98.66
58243;BME280;50118;53.232;8.252;2023-05-24T10:02:08;102176.56;;;12.53;99.15
58243;BME280;50118;53.232;8.252;2023-05-24T10:04:38;102182.41;;;12.02;100.00
58243;BME280;50118;53.232;8.252;2023-05-24T10:07:06;102186.69;;;12.27;100.00
58243;BME280;50118;53.232;8.252;2023-05-24T10:09:33;102182.69;;;12.21;100.00
58243;BME280;50118;53.232;8.252;2023-05-24T10:12:04;102182.03;;;12.63;98.54
58243;BME280;50118;53.232;8.252;2023-05-24T10:14:34;102175.59;;;13.20;98.95
58243;BME280;50118;53.232;8.252;2023-05-24T10:17:04;102181.22;;;12.40;100.00
58243;BME280;50118;53.232;8.252;2023-05-24T10:19:32;102199.28;;;12.81;100.00
58243;BME280;50118;53.232;8.252;2023-05-24T10:21:59;102190.78;;;12.65;100.00
58243;BME280;50118;53.232;8.252;2023-05-24T10:24:44;102189.69;;;12.67;100.00
58243;BME280;50118;53.232;8.252;2023-05-24T10:27:15;102192.50;;;12.55;100.00
58243;BME280;50118;53.232;8.252;2023-05-24T10:29:53;102191.66;;;12.65;98.65
58243;BME280;50118;53.232;8.252;2023-05-24T10:32:27;102207.06;;;12.17;100.00
58243;BME280;50118;53.232;8.252;2023-05-24T10:34:59;102198.34;;;12.37;100.00
58243;BME280;50118;53.232;8.252;2023-05-24T10:37:26;102199.41;;;12.80;100.00
58243;BME280;50118;53.232;8.252;2023-05-24T10:39:54;102208.75;;;12.85;99.79
58243;BME280;50118;53.232;8.252;2023-05-24T10:42:20;102199.75;;;12.86;98.92
58243;BME280;50118;53.232;8.252;2023-05-24T10:44:45;102186.59;;;13.06;97.66
58243;BME280;50118;53.232;8.252;2023-05-24T10:47:14;102186.50;;;12.96;97.43
58243;BME280;50118;53.232;8.252;2023-05-24T10:49:52;102193.56;;;12.75;97.99
58243;BME280;50118;53.232;8.252;2023-05-24T10:52:19;102196.53;;;12.26;99.58
58243;BME280;50118;53.232;8.252;2023-05-24T10:55:04;102196.00;;;12.10;100.00
58243;BME280;50118;53.232;8.252;2023-05-24T10:57:35;102191.41;;;12.01;100.00
58243;BME280;50118;53.232;8.252;2023-05-24T11:03:15;102203.81;;;12.24;100.00
58243;BME280;50118;53.232;8.252;2023-05-24T11:08:29;102207.81;;;11.72;100.00
58243;BME280;50118;53.232;8.252;2023-05-24T11:11:12;102209.00;;;11.92;100.00
58243;BME280;50118;53.232;8.252;2023-05-24T11:13:41;102209.16;;;12.36;100.00
58243;BME280;50118;53.232;8.252;2023-05-24T11:16:33;102205.75;;;12.45;100.00
58243;BME280;50118;53.232;8.252;2023-05-24T11:19:22;102199.91;;;12.51;100.00
58243;BME280;50118;53.232;8.252;2023-05-24T11:21:51;102209.38;;;12.89;96.15
58243;BME280;50118;53.232;8.252;2023-05-24T11:24:23;102206.69;;;12.78;96.08
58243;BME280;50118;53.232;8.252;2023-05-24T11:26:50;102209.16;;;12.58;99.26
58243;BME280;50118;53.232;8.252;2023-05-24T11:29:19;102213.25;;;12.17;99.70
58243;BME280;50118;53.232;8.252;2023-05-24T11:31:53;102207.44;;;12.57;98.82
58243;BME280;50118;53.232;8.252;2023-05-24T11:34:19;102211.06;;;12.22;97.16
58243;BME280;50118;53.232;8.252;2023-05-24T11:36:46;102206.81;;;12.65;97.75
58243;BME280;50118;53.232;8.252;2023-05-24T11:39:13;102194.97;;;12.46;98.36
58243;BME280;50118;53.232;8.252;2023-05-24T11:41:39;102206.50;;;12.47;97.46
58243;BME280;50118;53.232;8.252;2023-05-24T11:44:09;102211.94;;;12.34;97.25
58243;BME280;50118;53.232;8.252;2023-05-24T11:46:35;102205.03;;;12.31;99.83
58243;BME280;50118;53.232;8.252;2023-05-24T11:49:03;102204.91;;;12.22;100.00
58243;BME280;50118;53.232;8.252;2023-05-24T11:51:31;102211.09;;;12.67;100.00
58243;BME280;50118;53.232;8.252;2023-05-24T11:53:58;102205.50;;;12.59;100.00
58243;BME280;50118;53.232;8.252;2023-05-24T11:56:28;102205.63;;;12.58;98.12
58243;BME280;50118;53.232;8.252;2023-05-24T11:59:24;102210.81;;;12.93;96.89
58243;BME280;50118;53.232;8.252;2023-05-24T12:02:05;102212.56;;;13.26;94.35
58243;BME280;50118;53.232;8.252;2023-05-24T12:04:31;102211.69;;;13.58;91.84
58243;BME280;50118;53.232;8.252;2023-05-24T12:06:58;102207.47;;;12.68;95.01
58243;BME280;50118;53.232;8.252;2023-05-24T12:09:24;102206.50;;;13.13;98.11
58243;BME280;50118;53.232;8.252;2023-05-24T12:11:51;102203.16;;;13.43;94.37
58243;BME280;50118;53.232;8.252;2023-05-24T12:14:22;102204.31;;;13.07;95.31
58243;BME280;50118;53.232;8.252;2023-05-24T12:16:53;102220.47;;;13.17;97.18
58243;BME280;50118;53.232;8.252;2023-05-24T12:19:24;102216.34;;;13.13;97.17
58243;BME280;50118;53.232;8.252;2023-05-24T12:21:56;102211.66;;;13.49;97.38
58243;BME280;50118;53.232;8.252;2023-05-24T12:24:24;102220.69;;;13.25;94.79
58243;BME280;50118;53.232;8.252;2023-05-24T12:26:50;102209.09;;;13.68;94.16
58243;BME280;50118;53.232;8.252;2023-05-24T12:29:18;102216.75;;;13.94;90.28
58243;BME280;50118;53.232;8.252;2023-05-24T12:31:46;102223.16;;;13.81;89.90
58243;BME280;50118;53.232;8.252;2023-05-24T12:34:14;102225.91;;;13.38;91.19
58243;BME280;50118;53.232;8.252;2023-05-24T12:36:41;102234.34;;;13.33;95.14
58243;BME280;50118;53.232;8.252;2023-05-24T12:39:20;102232.00;;;12.74;99.43
58243;BME280;50118;53.232;8.252;2023-05-24T12:41:53;102232.47;;;12.56;99.01
58243;BME280;50118;53.232;8.252;2023-05-24T12:44:23;102220.31;;;12.86;98.89
58243;BME280;50118;53.232;8.252;2023-05-24T12:46:53;102242.50;;;13.09;95.09
58243;BME280;50118;53.232;8.252;2023-05-24T12:49:21;102235.81;;;13.15;94.64
58243;BME280;50118;53.232;8.252;2023-05-24T12:51:46;102232.19;;;12.93;95.35
58243;BME280;50118;53.232;8.252;2023-05-24T12:54:13;102247.91;;;12.64;99.71
58243;BME280;50118;53.232;8.252;2023-05-24T12:56:42;102238.53;;;12.36;100.00
58243;BME280;50118;53.232;8.252;2023-05-24T12:59:08;102230.16;;;12.40;100.00
58243;BME280;50118;53.232;8.252;2023-05-24T13:01:34;102244.75;;;12.36;100.00
58243;BME280;50118;53.232;8.252;2023-05-24T13:04:00;102239.50;;;12.23;100.00